Time,TemperatureF,DewpointF,PressureIn,WindDirection,WindDirectionDegrees,WindSpeedMPH,WindSpeedGustMPH,Humidity,HourlyPrecipIn,Conditions,Clouds,dailyrainin,SoftwareType,DateUTC
2013-09-15 00:06:00,73.0,60.5,30.01,SE,135,0.0,-999.0,65,0.00,,,0.00,open2300 v1.10,2013-09-15 05:06:00,
2013-09-15 00:16:00,72.5,60.9,30.01,SE,135,0.0,-999.0,67,0.00,,,0.00,open2300 v1.10,2013-09-15 05:16:00,
2013-09-15 00:21:00,72.3,60.7,30.01,SE,135,0.0,-999.0,67,0.00,,,0.00,open2300 v1.10,2013-09-15 05:21:00,
2013-09-15 00:27:00,72.3,60.7,30.01,SE,135,0.0,-999.0,67,0.00,,,0.00,open2300 v1.10,2013-09-15 05:27:00,
2013-09-15 00:31:00,72.3,60.7,30.01,SE,135,0.0,-999.0,67,0.00,,,0.00,open2300 v1.10,2013-09-15 05:31:00,
2013-09-15 00:37:00,72.3,60.7,30.01,SE,135,0.0,-999.0,67,0.00,,,0.00,open2300 v1.10,2013-09-15 05:37:00,
2013-09-15 00:42:00,72.3,60.7,30.01,SE,135,0.0,-999.0,67,0.00,,,0.00,open2300 v1.10,2013-09-15 05:42:00,
2013-09-15 00:47:00,72.3,60.7,30.01,SE,135,0.0,-999.0,67,0.00,,,0.00,open2300 v1.10,2013-09-15 05:47:00,
2013-09-15 00:57:00,72.1,61.0,30.01,SE,135,0.0,-999.0,68,0.00,,,0.00,open2300 v1.10,2013-09-15 05:57:00,
2013-09-15 01:06:00,71.8,60.6,30.01,South,180,0.0,-999.0,68,0.00,,,0.00,open2300 v1.10,2013-09-15 06:06:00,
2013-09-15 01:11:00,71.8,60.6,30.01,South,180,0.0,-999.0,68,0.00,,,0.00,open2300 v1.10,2013-09-15 06:11:00,
2013-09-15 01:16:00,72.0,60.8,30.01,South,180,0.0,-999.0,68,0.00,,,0.00,open2300 v1.10,2013-09-15 06:16:00,
2013-09-15 01:21:00,71.8,60.6,30.01,SSW,202,0.0,-999.0,68,0.00,,,0.00,open2300 v1.10,2013-09-15 06:21:00,
2013-09-15 01:26:00,71.8,60.6,30.01,SSW,202,0.0,-999.0,68,0.00,,,0.00,open2300 v1.10,2013-09-15 06:26:00,
2013-09-15 01:32:00,71.8,60.6,30.01,SSW,202,0.0,-999.0,68,0.00,,,0.00,open2300 v1.10,2013-09-15 06:32:00,
2013-09-15 01:37:00,71.8,60.6,30.01,SSW,202,0.4,-999.0,68,0.00,,,0.00,open2300 v1.10,2013-09-15 06:37:00,
2013-09-15 01:47:00,71.8,60.2,30.01,South,180,0.0,-999.0,67,0.00,,,0.00,open2300 v1.10,2013-09-15 06:47:00,
2013-09-15 01:52:00,71.8,60.2,30.02,SSW,202,0.0,-999.0,67,0.00,,,0.00,open2300 v1.10,2013-09-15 06:52:00,
2013-09-15 01:57:00,71.8,60.2,30.02,SSW,202,1.1,-999.0,67,0.00,,,0.00,open2300 v1.10,2013-09-15 06:57:00,
2013-09-15 02:06:00,71.4,59.4,30.01,SSW,202,0.0,-999.0,66,0.00,,,0.00,open2300 v1.10,2013-09-15 07:06:00,
2013-09-15 02:11:00,71.4,59.9,30.01,SSW,202,0.0,-999.0,67,0.00,,,0.00,open2300 v1.10,2013-09-15 07:11:00,
2013-09-15 02:22:00,71.2,59.2,30.01,SSW,202,0.0,-999.0,66,0.00,,,0.00,open2300 v1.10,2013-09-15 07:22:00,
2013-09-15 02:32:00,71.1,59.1,30.01,SSW,202,0.0,-999.0,66,0.00,,,0.00,open2300 v1.10,2013-09-15 07:32:00,
2013-09-15 02:37:00,70.9,58.9,30.01,SSW,202,0.0,-999.0,66,0.00,,,0.00,open2300 v1.10,2013-09-15 07:37:00,
2013-09-15 02:47:00,70.7,59.2,30.01,South,180,2.2,-999.0,67,0.00,,,0.00,open2300 v1.10,2013-09-15 07:47:00,
2013-09-15 02:52:00,70.5,59.0,30.01,SSW,202,0.0,-999.0,67,0.00,,,0.00,open2300 v1.10,2013-09-15 07:52:00,
2013-09-15 02:57:00,70.3,58.8,30.01,South,180,0.0,-999.0,67,0.00,,,0.00,open2300 v1.10,2013-09-15 07:57:00,
2013-09-15 03:06:00,70.2,58.6,30.01,SSE,157,0.0,-999.0,67,0.00,,,0.00,open2300 v1.10,2013-09-15 08:06:00,
2013-09-15 03:11:00,70.2,58.6,30.01,SSE,157,0.0,-999.0,67,0.00,,,0.00,open2300 v1.10,2013-09-15 08:11:00,
2013-09-15 03:16:00,70.0,58.5,30.01,SSE,157,0.0,-999.0,67,0.00,,,0.00,open2300 v1.10,2013-09-15 08:16:00,
2013-09-15 03:21:00,69.8,58.3,30.01,SSE,157,0.0,-999.0,67,0.00,,,0.00,open2300 v1.10,2013-09-15 08:21:00,
2013-09-15 03:26:00,69.6,58.1,30.01,South,180,0.0,-999.0,67,0.00,,,0.00,open2300 v1.10,2013-09-15 08:26:00,
2013-09-15 03:32:00,69.6,58.1,30.01,South,180,0.0,-999.0,67,0.00,,,0.00,open2300 v1.10,2013-09-15 08:32:00,
2013-09-15 03:37:00,69.6,58.5,30.01,South,180,0.0,-999.0,68,0.00,,,0.00,open2300 v1.10,2013-09-15 08:37:00,
2013-09-15 03:42:00,69.4,58.4,30.01,South,180,0.0,-999.0,68,0.00,,,0.00,open2300 v1.10,2013-09-15 08:42:00,
2013-09-15 03:47:00,69.4,58.4,30.01,SSE,157,0.0,-999.0,68,0.00,,,0.00,open2300 v1.10,2013-09-15 08:47:00,
2013-09-15 03:52:00,69.4,58.4,30.01,South,180,0.0,-999.0,68,0.00,,,0.00,open2300 v1.10,2013-09-15 08:52:00,
2013-09-15 03:57:00,69.3,58.2,30.01,South,180,0.0,-999.0,68,0.00,,,0.00,open2300 v1.10,2013-09-15 08:57:00,
2013-09-15 04:06:00,69.1,58.0,30.01,South,180,0.0,-999.0,68,0.00,,,0.00,open2300 v1.10,2013-09-15 09:06:00,
2013-09-15 04:11:00,68.9,57.9,30.01,South,180,0.0,-999.0,68,0.00,,,0.00,open2300 v1.10,2013-09-15 09:11:00,
2013-09-15 04:16:00,68.9,57.9,30.01,South,180,0.0,-999.0,68,0.00,,,0.00,open2300 v1.10,2013-09-15 09:16:00,
2013-09-15 04:21:00,68.9,57.9,30.01,South,180,0.0,-999.0,68,0.00,,,0.00,open2300 v1.10,2013-09-15 09:21:00,
2013-09-15 04:26:00,68.9,57.9,30.01,South,180,0.0,-999.0,68,0.00,,,0.00,open2300 v1.10,2013-09-15 09:26:00,
2013-09-15 04:31:00,68.7,57.7,30.01,SSE,157,0.0,-999.0,68,0.00,,,0.00,open2300 v1.10,2013-09-15 09:31:00,
2013-09-15 04:37:00,68.7,57.7,30.01,South,180,0.0,-999.0,68,0.00,,,0.00,open2300 v1.10,2013-09-15 09:37:00,
2013-09-15 04:42:00,68.7,57.7,30.01,South,180,0.0,-999.0,68,0.00,,,0.00,open2300 v1.10,2013-09-15 09:42:00,
2013-09-15 04:47:00,68.7,57.7,30.01,South,180,0.0,-999.0,68,0.00,,,0.00,open2300 v1.10,2013-09-15 09:47:00,
2013-09-15 04:52:00,68.5,57.5,30.01,South,180,0.0,-999.0,68,0.00,,,0.00,open2300 v1.10,2013-09-15 09:52:00,
2013-09-15 04:57:00,68.5,57.5,30.01,South,180,0.0,-999.0,68,0.00,,,0.00,open2300 v1.10,2013-09-15 09:57:00,
2013-09-15 05:06:00,68.4,57.8,30.02,South,180,0.0,-999.0,69,0.00,,,0.00,open2300 v1.10,2013-09-15 10:06:00,
2013-09-15 05:11:00,68.4,57.8,30.02,South,180,0.0,-999.0,69,0.00,,,0.00,open2300 v1.10,2013-09-15 10:11:00,
2013-09-15 05:16:00,68.2,57.7,30.02,South,180,0.0,-999.0,69,0.00,,,0.00,open2300 v1.10,2013-09-15 10:16:00,
2013-09-15 05:26:00,68.2,57.7,30.02,South,180,0.0,-999.0,69,0.00,,,0.00,open2300 v1.10,2013-09-15 10:26:00,
2013-09-15 05:31:00,68.2,57.7,30.02,South,180,0.0,-999.0,69,0.00,,,0.00,open2300 v1.10,2013-09-15 10:31:00,
2013-09-15 05:37:00,67.8,57.3,30.02,South,180,0.0,-999.0,69,0.00,,,0.00,open2300 v1.10,2013-09-15 10:37:00,
2013-09-15 05:47:00,67.8,57.3,30.02,South,180,0.0,-999.0,69,0.00,,,0.00,open2300 v1.10,2013-09-15 10:47:00,
2013-09-15 05:52:00,67.8,57.3,30.03,South,180,0.0,-999.0,69,0.00,,,0.00,open2300 v1.10,2013-09-15 10:52:00,
2013-09-15 05:57:00,67.8,57.7,30.03,South,180,0.0,-999.0,70,0.00,,,0.00,open2300 v1.10,2013-09-15 10:57:00,
2013-09-15 06:06:00,67.6,57.6,30.04,South,180,0.0,-999.0,70,0.00,,,0.00,open2300 v1.10,2013-09-15 11:06:00,
2013-09-15 06:11:00,67.6,57.6,30.04,South,180,0.0,-999.0,70,0.00,,,0.00,open2300 v1.10,2013-09-15 11:11:00,
2013-09-15 06:16:00,67.5,57.4,30.04,South,180,0.0,-999.0,70,0.00,,,0.00,open2300 v1.10,2013-09-15 11:16:00,
2013-09-15 06:21:00,67.3,57.2,30.04,South,180,0.0,-999.0,70,0.00,,,0.00,open2300 v1.10,2013-09-15 11:21:00,
2013-09-15 06:26:00,67.3,57.2,30.04,South,180,0.0,-999.0,70,0.00,,,0.00,open2300 v1.10,2013-09-15 11:26:00,
2013-09-15 06:31:00,67.1,57.0,30.04,South,180,0.0,-999.0,70,0.00,,,0.00,open2300 v1.10,2013-09-15 11:31:00,
2013-09-15 06:37:00,66.9,57.2,30.04,South,180,0.0,-999.0,71,0.00,,,0.00,open2300 v1.10,2013-09-15 11:37:00,
2013-09-15 06:47:00,66.7,57.0,30.04,South,180,0.0,-999.0,71,0.00,,,0.00,open2300 v1.10,2013-09-15 11:47:00,
2013-09-15 06:52:00,66.7,57.4,30.04,South,180,0.0,-999.0,72,0.00,,,0.00,open2300 v1.10,2013-09-15 11:52:00,
2013-09-15 06:57:00,66.6,57.2,30.04,South,180,0.0,-999.0,72,0.00,,,0.00,open2300 v1.10,2013-09-15 11:57:00,
2013-09-15 07:06:00,66.4,57.1,30.04,NNW,337,14.1,-999.0,72,0.00,,,0.00,open2300 v1.10,2013-09-15 12:06:00,
2013-09-15 07:11:00,66.4,57.1,30.04,South,180,0.0,-999.0,72,0.00,,,0.00,open2300 v1.10,2013-09-15 12:11:00,
2013-09-15 07:16:00,66.6,57.2,30.05,South,180,0.0,-999.0,72,0.00,,,0.00,open2300 v1.10,2013-09-15 12:16:00,
2013-09-15 07:21:00,66.7,57.4,30.05,South,180,0.0,-999.0,72,0.00,,,0.00,open2300 v1.10,2013-09-15 12:21:00,
2013-09-15 07:32:00,67.3,57.6,30.05,South,180,0.0,-999.0,71,0.00,,,0.00,open2300 v1.10,2013-09-15 12:32:00,
2013-09-15 07:37:00,67.8,57.7,30.05,South,180,0.0,-999.0,69,0.00,,,0.00,open2300 v1.10,2013-09-15 12:37:00,
2013-09-15 07:47:00,68.7,57.7,30.05,SSW,202,0.0,-999.0,68,0.00,,,0.00,open2300 v1.10,2013-09-15 12:47:00,
2013-09-15 07:52:00,69.1,57.6,30.05,SSW,202,5.4,-999.0,67,0.00,,,0.00,open2300 v1.10,2013-09-15 12:52:00,
2013-09-15 07:57:00,69.6,57.7,30.06,South,180,0.0,-999.0,66,0.00,,,0.00,open2300 v1.10,2013-09-15 12:57:00,
2013-09-15 08:06:00,70.3,58.0,30.06,South,180,0.4,-999.0,65,0.00,,,0.00,open2300 v1.10,2013-09-15 13:06:00,
2013-09-15 08:11:00,70.7,57.9,30.06,SSE,157,0.0,-999.0,64,0.00,,,0.00,open2300 v1.10,2013-09-15 13:11:00,
2013-09-15 08:22:00,71.6,57.9,30.06,SSW,202,4.7,-999.0,62,0.00,,,0.00,open2300 v1.10,2013-09-15 13:22:00,
2013-09-15 08:32:00,72.7,58.4,30.06,SSW,202,0.0,-999.0,61,0.00,,,0.00,open2300 v1.10,2013-09-15 13:32:00,
2013-09-15 08:37:00,73.2,58.0,30.06,SW,225,6.7,-999.0,59,0.00,,,0.00,open2300 v1.10,2013-09-15 13:37:00,
2013-09-15 08:47:00,73.9,58.2,30.06,SSW,202,0.0,-999.0,58,0.00,,,0.00,open2300 v1.10,2013-09-15 13:47:00,
2013-09-15 08:52:00,74.5,58.7,30.07,SSW,202,0.0,-999.0,58,0.00,,,0.00,open2300 v1.10,2013-09-15 13:52:00,
2013-09-15 08:57:00,75.0,58.8,30.07,SSW,202,0.0,-999.0,57,0.00,,,0.00,open2300 v1.10,2013-09-15 13:57:00,
2013-09-15 09:06:00,75.6,58.8,30.07,SSW,202,3.6,-999.0,56,0.00,,,0.00,open2300 v1.10,2013-09-15 14:06:00,
2013-09-15 09:11:00,75.9,59.1,30.08,SW,225,0.0,-999.0,56,0.00,,,0.00,open2300 v1.10,2013-09-15 14:11:00,
2013-09-15 09:16:00,76.3,59.4,30.08,South,180,0.0,-999.0,56,0.00,,,0.00,open2300 v1.10,2013-09-15 14:16:00,
2013-09-15 09:21:00,76.6,59.7,30.08,SW,225,0.0,-999.0,56,0.00,,,0.00,open2300 v1.10,2013-09-15 14:21:00,
2013-09-15 09:26:00,77.0,59.5,30.08,SSW,202,0.0,-999.0,55,0.00,,,0.00,open2300 v1.10,2013-09-15 14:26:00,
2013-09-15 09:31:00,77.4,59.9,30.08,SW,225,1.1,-999.0,55,0.00,,,0.00,open2300 v1.10,2013-09-15 14:31:00,
2013-09-15 09:37:00,77.7,59.7,30.08,SW,225,5.8,-999.0,54,0.00,,,0.00,open2300 v1.10,2013-09-15 14:37:00,
2013-09-15 09:47:00,78.6,60.0,30.09,WSW,247,11.4,-999.0,53,0.00,,,0.00,open2300 v1.10,2013-09-15 14:47:00,
2013-09-15 09:52:00,79.0,59.8,30.09,South,180,0.0,-999.0,52,0.00,,,0.00,open2300 v1.10,2013-09-15 14:52:00,
2013-09-15 09:57:00,79.3,60.2,30.09,WSW,247,1.6,-999.0,52,0.00,,,0.00,open2300 v1.10,2013-09-15 14:57:00,
2013-09-15 10:06:00,79.7,60.0,30.09,SSW,202,0.0,-999.0,51,0.00,,,0.00,open2300 v1.10,2013-09-15 15:06:00,
2013-09-15 10:11:00,80.2,60.5,30.09,WSW,247,6.5,-999.0,51,0.00,,,0.00,open2300 v1.10,2013-09-15 15:11:00,
2013-09-15 10:16:00,80.4,60.6,30.09,SW,225,0.2,-999.0,51,0.00,,,0.00,open2300 v1.10,2013-09-15 15:16:00,
2013-09-15 10:21:00,81.0,60.6,30.09,SE,135,2.9,-999.0,50,0.00,,,0.00,open2300 v1.10,2013-09-15 15:21:00,
2013-09-15 10:26:00,81.1,60.8,30.09,South,180,0.0,-999.0,50,0.00,,,0.00,open2300 v1.10,2013-09-15 15:26:00,
2013-09-15 10:32:00,81.3,60.9,30.09,SW,225,8.5,-999.0,50,0.00,,,0.00,open2300 v1.10,2013-09-15 15:32:00,
2013-09-15 10:37:00,81.7,61.2,30.09,SSE,157,0.0,-999.0,50,0.00,,,0.00,open2300 v1.10,2013-09-15 15:37:00,
2013-09-15 10:47:00,82.2,62.2,30.09,SSW,202,0.0,-999.0,51,0.00,,,0.00,open2300 v1.10,2013-09-15 15:47:00,
2013-09-15 10:57:00,82.8,62.8,30.09,SE,135,7.4,-999.0,51,0.00,,,0.00,open2300 v1.10,2013-09-15 15:57:00,
2013-09-15 11:06:00,83.3,63.3,30.09,SW,225,0.0,-999.0,51,0.00,,,0.00,open2300 v1.10,2013-09-15 16:06:00,
2013-09-15 11:11:00,83.5,63.5,30.10,SSW,202,0.0,-999.0,51,0.00,,,0.00,open2300 v1.10,2013-09-15 16:11:00,
2013-09-15 11:16:00,83.5,63.5,30.09,SSW,202,0.0,-999.0,51,0.00,,,0.00,open2300 v1.10,2013-09-15 16:16:00,
2013-09-15 11:21:00,83.8,63.8,30.09,SSW,202,0.0,-999.0,51,0.00,,,0.00,open2300 v1.10,2013-09-15 16:21:00,
2013-09-15 11:26:00,84.0,64.0,30.09,SW,225,4.2,-999.0,51,0.00,,,0.00,open2300 v1.10,2013-09-15 16:26:00,
2013-09-15 11:31:00,84.4,64.4,30.09,SSW,202,2.9,-999.0,51,0.00,,,0.00,open2300 v1.10,2013-09-15 16:31:00,
2013-09-15 11:37:00,84.6,64.5,30.09,SSE,157,0.0,-999.0,51,0.00,,,0.00,open2300 v1.10,2013-09-15 16:37:00,
2013-09-15 11:47:00,84.9,64.8,30.09,SSE,157,0.0,-999.0,51,0.00,,,0.00,open2300 v1.10,2013-09-15 16:47:00,
2013-09-15 11:52:00,85.1,65.0,30.08,East,90,2.5,-999.0,51,0.00,,,0.00,open2300 v1.10,2013-09-15 16:52:00,
2013-09-15 11:57:00,85.1,65.0,30.08,West,270,0.0,-999.0,51,0.00,,,0.00,open2300 v1.10,2013-09-15 16:57:00,
2013-09-15 12:06:00,85.3,65.2,30.07,WNW,292,0.0,-999.0,51,0.00,,,0.00,open2300 v1.10,2013-09-15 17:06:00,
2013-09-15 12:11:00,85.6,65.5,30.07,North,0,0.0,-999.0,51,0.00,,,0.00,open2300 v1.10,2013-09-15 17:11:00,
2013-09-15 12:16:00,85.6,66.0,30.07,SW,225,0.0,-999.0,52,0.00,,,0.00,open2300 v1.10,2013-09-15 17:16:00,
2013-09-15 12:21:00,85.8,66.2,30.07,SW,225,4.7,-999.0,52,0.00,,,0.00,open2300 v1.10,2013-09-15 17:21:00,
2013-09-15 12:26:00,86.4,66.7,30.07,SE,135,0.7,-999.0,52,0.00,,,0.00,open2300 v1.10,2013-09-15 17:26:00,
2013-09-15 12:32:00,86.4,66.2,30.07,North,0,0.0,-999.0,51,0.00,,,0.00,open2300 v1.10,2013-09-15 17:32:00,
2013-09-15 12:37:00,86.5,66.8,30.07,ENE,67,0.0,-999.0,52,0.00,,,0.00,open2300 v1.10,2013-09-15 17:37:00,
2013-09-15 12:42:00,86.9,67.2,30.07,SSW,202,0.0,-999.0,52,0.00,,,0.00,open2300 v1.10,2013-09-15 17:42:00,
2013-09-15 12:47:00,87.1,66.8,30.07,ENE,67,0.9,-999.0,51,0.00,,,0.00,open2300 v1.10,2013-09-15 17:47:00,
2013-09-15 12:52:00,87.6,66.8,30.06,SSE,157,0.0,-999.0,50,0.00,,,0.00,open2300 v1.10,2013-09-15 17:52:00,
2013-09-15 12:57:00,88.0,67.1,30.07,South,180,0.0,-999.0,50,0.00,,,0.00,open2300 v1.10,2013-09-15 17:57:00,
2013-09-15 13:06:00,88.0,67.1,30.06,SSW,202,0.0,-999.0,50,0.00,,,0.00,open2300 v1.10,2013-09-15 18:06:00,
2013-09-15 13:11:00,88.2,67.2,30.06,WSW,247,0.0,-999.0,50,0.00,,,0.00,open2300 v1.10,2013-09-15 18:11:00,
2013-09-15 13:16:00,88.3,66.8,30.06,NW,315,0.0,-999.0,49,0.00,,,0.00,open2300 v1.10,2013-09-15 18:16:00,
2013-09-15 13:21:00,88.7,67.1,30.06,SSE,157,0.0,-999.0,49,0.00,,,0.00,open2300 v1.10,2013-09-15 18:21:00,
2013-09-15 13:26:00,89.1,66.8,30.05,SE,135,0.0,-999.0,48,0.00,,,0.00,open2300 v1.10,2013-09-15 18:26:00,
2013-09-15 13:32:00,89.2,67.6,30.05,SSE,157,0.0,-999.0,49,0.00,,,0.00,open2300 v1.10,2013-09-15 18:32:00,
2013-09-15 13:37:00,89.4,67.1,30.05,South,180,0.7,-999.0,48,0.00,,,0.00,open2300 v1.10,2013-09-15 18:37:00,
2013-09-15 13:42:00,89.8,67.4,30.06,SSW,202,8.9,-999.0,48,0.00,,,0.00,open2300 v1.10,2013-09-15 18:42:00,
2013-09-15 13:52:00,90.0,66.9,30.05,SW,225,2.2,-999.0,47,0.00,,,0.00,open2300 v1.10,2013-09-15 18:52:00,
2013-09-15 13:57:00,90.3,67.2,30.05,SSW,202,0.0,-999.0,47,0.00,,,0.00,open2300 v1.10,2013-09-15 18:57:00,
2013-09-15 14:06:00,90.3,66.6,30.04,SSW,202,2.5,-999.0,46,0.00,,,0.00,open2300 v1.10,2013-09-15 19:06:00,
2013-09-15 14:11:00,90.7,67.6,30.04,NW,315,2.9,-999.0,47,0.00,,,0.00,open2300 v1.10,2013-09-15 19:11:00,
2013-09-15 14:16:00,91.0,67.2,30.04,SSE,157,0.0,-999.0,46,0.00,,,0.00,open2300 v1.10,2013-09-15 19:16:00,
2013-09-15 14:21:00,91.2,67.4,30.04,SW,225,0.0,-999.0,46,0.00,,,0.00,open2300 v1.10,2013-09-15 19:21:00,
2013-09-15 14:26:00,91.4,67.6,30.04,SSW,202,0.0,-999.0,46,0.00,,,0.00,open2300 v1.10,2013-09-15 19:26:00,
2013-09-15 14:32:00,91.2,67.4,30.04,SSW,202,0.0,-999.0,46,0.00,,,0.00,open2300 v1.10,2013-09-15 19:32:00,
2013-09-15 14:37:00,91.2,67.4,30.04,SSW,202,7.6,-999.0,46,0.00,,,0.00,open2300 v1.10,2013-09-15 19:37:00,
2013-09-15 14:42:00,91.2,67.4,30.04,SE,135,0.4,-999.0,46,0.00,,,0.00,open2300 v1.10,2013-09-15 19:42:00,
2013-09-15 14:47:00,91.4,67.6,30.03,WSW,247,0.0,-999.0,46,0.00,,,0.00,open2300 v1.10,2013-09-15 19:47:00,
2013-09-15 14:52:00,91.9,67.4,30.04,SE,135,0.0,-999.0,45,0.00,,,0.00,open2300 v1.10,2013-09-15 19:52:00,
2013-09-15 14:57:00,91.9,67.4,30.04,SSW,202,0.0,-999.0,45,0.00,,,0.00,open2300 v1.10,2013-09-15 19:57:00,
2013-09-15 15:06:00,92.1,66.9,30.03,South,180,0.0,-999.0,44,0.00,,,0.00,open2300 v1.10,2013-09-15 20:06:00,
2013-09-15 15:11:00,91.8,67.2,30.03,SSW,202,0.0,-999.0,45,0.00,,,0.00,open2300 v1.10,2013-09-15 20:11:00,
2013-09-15 15:16:00,91.8,67.2,30.03,SSW,202,0.0,-999.0,45,0.00,,,0.00,open2300 v1.10,2013-09-15 20:16:00,
2013-09-15 15:21:00,91.6,66.4,30.03,SW,225,0.7,-999.0,44,0.00,,,0.00,open2300 v1.10,2013-09-15 20:21:00,
2013-09-15 15:26:00,91.4,66.3,30.02,SSE,157,0.0,-999.0,44,0.00,,,0.00,open2300 v1.10,2013-09-15 20:26:00,
2013-09-15 15:31:00,91.2,66.1,30.02,SW,225,0.0,-999.0,44,0.00,,,0.00,open2300 v1.10,2013-09-15 20:31:00,
2013-09-15 15:37:00,91.2,66.8,30.02,NW,315,0.0,-999.0,45,0.00,,,0.00,open2300 v1.10,2013-09-15 20:37:00,
2013-09-15 15:47:00,91.2,66.8,30.02,SSW,202,0.0,-999.0,45,0.00,,,0.00,open2300 v1.10,2013-09-15 20:47:00,
2013-09-15 15:52:00,91.2,66.8,30.02,WSW,247,0.0,-999.0,45,0.00,,,0.00,open2300 v1.10,2013-09-15 20:52:00,
2013-09-15 15:57:00,91.2,66.8,30.02,SSW,202,0.0,-999.0,45,0.00,,,0.00,open2300 v1.10,2013-09-15 20:57:00,
2013-09-15 16:06:00,91.6,67.1,30.02,SSW,202,0.0,-999.0,45,0.00,,,0.00,open2300 v1.10,2013-09-15 21:06:00,
2013-09-15 16:11:00,91.6,67.1,30.02,South,180,0.0,-999.0,45,0.00,,,0.00,open2300 v1.10,2013-09-15 21:11:00,
2013-09-15 16:16:00,91.6,67.1,30.02,ESE,112,0.0,-999.0,45,0.00,,,0.00,open2300 v1.10,2013-09-15 21:16:00,
2013-09-15 16:21:00,91.6,67.1,30.02,SE,135,0.0,-999.0,45,0.00,,,0.00,open2300 v1.10,2013-09-15 21:21:00,
2013-09-15 16:27:00,91.8,67.2,30.02,SE,135,0.0,-999.0,45,0.00,,,0.00,open2300 v1.10,2013-09-15 21:27:00,
2013-09-15 16:31:00,91.6,67.1,30.02,SSW,202,0.0,-999.0,45,0.00,,,0.00,open2300 v1.10,2013-09-15 21:31:00,
2013-09-15 16:37:00,91.6,67.1,30.02,South,180,0.0,-999.0,45,0.00,,,0.00,open2300 v1.10,2013-09-15 21:37:00,
2013-09-15 16:47:00,91.6,67.1,30.01,SSE,157,1.1,-999.0,45,0.00,,,0.00,open2300 v1.10,2013-09-15 21:47:00,
2013-09-15 16:52:00,91.2,67.4,30.01,WSW,247,4.0,-999.0,46,0.00,,,0.00,open2300 v1.10,2013-09-15 21:52:00,
2013-09-15 16:57:00,91.0,67.2,30.02,South,180,0.0,-999.0,46,0.00,,,0.00,open2300 v1.10,2013-09-15 21:57:00,
2013-09-15 17:06:00,91.0,67.2,30.01,SW,225,2.2,-999.0,46,0.00,,,0.00,open2300 v1.10,2013-09-15 22:06:00,
2013-09-15 17:16:00,91.0,67.2,30.02,South,180,0.9,-999.0,46,0.00,,,0.00,open2300 v1.10,2013-09-15 22:16:00,
2013-09-15 17:21:00,90.7,66.9,30.02,SSW,202,0.0,-999.0,46,0.00,,,0.00,open2300 v1.10,2013-09-15 22:21:00,
2013-09-15 17:26:00,90.7,67.6,30.02,South,180,0.0,-999.0,47,0.00,,,0.00,open2300 v1.10,2013-09-15 22:26:00,
2013-09-15 17:31:00,90.5,67.4,30.02,SW,225,3.6,-999.0,47,0.00,,,0.00,open2300 v1.10,2013-09-15 22:31:00,
2013-09-15 17:37:00,90.3,66.6,30.02,SW,225,5.4,-999.0,46,0.00,,,0.00,open2300 v1.10,2013-09-15 22:37:00,
2013-09-15 17:47:00,90.1,67.1,30.02,SSW,202,0.0,-999.0,47,0.00,,,0.00,open2300 v1.10,2013-09-15 22:47:00,
2013-09-15 17:52:00,90.0,66.9,30.02,SSW,202,0.0,-999.0,47,0.00,,,0.00,open2300 v1.10,2013-09-15 22:52:00,
2013-09-15 17:57:00,89.8,66.8,30.02,East,90,0.0,-999.0,47,0.00,,,0.00,open2300 v1.10,2013-09-15 22:57:00,
2013-09-15 18:06:00,89.8,66.8,30.01,SSW,202,5.4,-999.0,47,0.00,,,0.00,open2300 v1.10,2013-09-15 23:06:00,
2013-09-15 18:11:00,89.6,66.6,30.02,SSW,202,0.0,-999.0,47,0.00,,,0.00,open2300 v1.10,2013-09-15 23:11:00,
2013-09-15 18:16:00,89.4,66.4,30.02,SW,225,2.5,-999.0,47,0.00,,,0.00,open2300 v1.10,2013-09-15 23:16:00,
2013-09-15 18:21:00,89.4,67.1,30.02,SSW,202,3.1,-999.0,48,0.00,,,0.00,open2300 v1.10,2013-09-15 23:21:00,
2013-09-15 18:26:00,89.2,66.9,30.02,SSW,202,1.6,-999.0,48,0.00,,,0.00,open2300 v1.10,2013-09-15 23:26:00,
2013-09-15 18:31:00,89.2,66.9,30.02,SSW,202,0.0,-999.0,48,0.00,,,0.00,open2300 v1.10,2013-09-15 23:31:00,
2013-09-15 18:37:00,88.9,67.2,30.02,SW,225,0.0,-999.0,49,0.00,,,0.00,open2300 v1.10,2013-09-15 23:37:00,
2013-09-15 18:42:00,88.7,67.1,30.02,SSW,202,0.0,-999.0,49,0.00,,,0.00,open2300 v1.10,2013-09-15 23:42:00,
2013-09-15 18:47:00,88.5,66.9,30.02,SSW,202,0.0,-999.0,49,0.00,,,0.00,open2300 v1.10,2013-09-15 23:47:00,
2013-09-15 18:52:00,88.3,67.4,30.02,SSW,202,0.0,-999.0,50,0.00,,,0.00,open2300 v1.10,2013-09-15 23:52:00,
2013-09-15 18:57:00,88.2,67.2,30.03,SSW,202,0.0,-999.0,50,0.00,,,0.00,open2300 v1.10,2013-09-15 23:57:00,
2013-09-15 19:06:00,87.6,67.3,30.03,SSW,202,0.0,-999.0,51,0.00,,,0.00,open2300 v1.10,2013-09-16 00:06:00,
2013-09-15 19:11:00,87.4,67.1,30.03,SSW,202,0.0,-999.0,51,0.00,,,0.00,open2300 v1.10,2013-09-16 00:11:00,
2013-09-15 19:16:00,87.3,67.0,30.03,SSW,202,3.6,-999.0,51,0.00,,,0.00,open2300 v1.10,2013-09-16 00:16:00,
2013-09-15 19:22:00,87.1,67.3,30.03,SSW,202,0.0,-999.0,52,0.00,,,0.00,open2300 v1.10,2013-09-16 00:22:00,
2013-09-15 19:32:00,86.7,67.0,30.03,SSW,202,0.0,-999.0,52,0.00,,,0.00,open2300 v1.10,2013-09-16 00:32:00,
2013-09-15 19:37:00,86.4,67.2,30.03,SSW,202,0.0,-999.0,53,0.00,,,0.00,open2300 v1.10,2013-09-16 00:37:00,
2013-09-15 19:42:00,86.2,67.0,30.03,SSW,202,0.0,-999.0,53,0.00,,,0.00,open2300 v1.10,2013-09-16 00:42:00,
2013-09-15 19:47:00,85.8,67.2,30.03,SSW,202,0.0,-999.0,54,0.00,,,0.00,open2300 v1.10,2013-09-16 00:47:00,
2013-09-15 19:52:00,85.6,67.1,30.03,SSW,202,0.0,-999.0,54,0.00,,,0.00,open2300 v1.10,2013-09-16 00:52:00,
2013-09-15 20:01:00,85.3,67.3,30.03,SSW,202,0.0,-999.0,55,0.00,,,0.00,open2300 v1.10,2013-09-16 01:01:00,
2013-09-15 20:06:00,84.9,66.9,30.04,SSW,202,0.0,-999.0,55,0.00,,,0.00,open2300 v1.10,2013-09-16 01:06:00,
2013-09-15 20:11:00,84.7,67.3,30.05,SSW,202,0.0,-999.0,56,0.00,,,0.00,open2300 v1.10,2013-09-16 01:11:00,
2013-09-15 20:16:00,84.7,67.3,30.05,SSW,202,0.0,-999.0,56,0.00,,,0.00,open2300 v1.10,2013-09-16 01:16:00,
2013-09-15 20:21:00,84.6,67.1,30.05,SSW,202,0.0,-999.0,56,0.00,,,0.00,open2300 v1.10,2013-09-16 01:21:00,
2013-09-15 20:26:00,84.4,67.5,30.05,SSW,202,0.0,-999.0,57,0.00,,,0.00,open2300 v1.10,2013-09-16 01:26:00,
2013-09-15 20:31:00,84.4,67.5,30.05,SSW,202,0.0,-999.0,57,0.00,,,0.00,open2300 v1.10,2013-09-16 01:31:00,
2013-09-15 20:37:00,84.0,67.2,30.05,SSW,202,0.0,-999.0,57,0.00,,,0.00,open2300 v1.10,2013-09-16 01:37:00,
2013-09-15 20:42:00,84.0,67.2,30.05,SSW,202,0.0,-999.0,57,0.00,,,0.00,open2300 v1.10,2013-09-16 01:42:00,
2013-09-15 20:47:00,83.8,67.5,30.05,SSW,202,0.0,-999.0,58,0.00,,,0.00,open2300 v1.10,2013-09-16 01:47:00,
2013-09-15 20:52:00,83.8,67.5,30.06,SSW,202,0.0,-999.0,58,0.00,,,0.00,open2300 v1.10,2013-09-16 01:52:00,
2013-09-15 20:57:00,83.7,67.3,30.05,SSW,202,0.0,-999.0,58,0.00,,,0.00,open2300 v1.10,2013-09-16 01:57:00,
2013-09-15 21:06:00,83.3,67.5,30.06,SSW,202,0.0,-999.0,59,0.00,,,0.00,open2300 v1.10,2013-09-16 02:06:00,
2013-09-15 21:11:00,83.1,67.3,30.06,SSW,202,0.0,-999.0,59,0.00,,,0.00,open2300 v1.10,2013-09-16 02:11:00,
2013-09-15 21:16:00,83.1,67.3,30.06,SSW,202,0.0,-999.0,59,0.00,,,0.00,open2300 v1.10,2013-09-16 02:16:00,
2013-09-15 21:21:00,82.9,67.6,30.06,SSW,202,0.0,-999.0,60,0.00,,,0.00,open2300 v1.10,2013-09-16 02:21:00,
2013-09-15 21:26:00,82.8,67.5,30.06,SSW,202,0.0,-999.0,60,0.00,,,0.00,open2300 v1.10,2013-09-16 02:26:00,
2013-09-15 21:32:00,82.8,67.5,30.06,SSW,202,0.0,-999.0,60,0.00,,,0.00,open2300 v1.10,2013-09-16 02:32:00,
2013-09-15 21:37:00,82.6,67.3,30.06,SW,225,0.0,-999.0,60,0.00,,,0.00,open2300 v1.10,2013-09-16 02:37:00,
2013-09-15 21:47:00,82.4,67.1,30.06,SSW,202,0.0,-999.0,60,0.00,,,0.00,open2300 v1.10,2013-09-16 02:47:00,
2013-09-15 21:52:00,82.2,66.9,30.06,WSW,247,0.0,-999.0,60,0.00,,,0.00,open2300 v1.10,2013-09-16 02:52:00,
2013-09-15 21:57:00,82.2,67.4,30.06,SW,225,0.0,-999.0,61,0.00,,,0.00,open2300 v1.10,2013-09-16 02:57:00,
2013-09-15 22:06:00,82.0,67.2,30.06,SW,225,0.0,-999.0,61,0.00,,,0.00,open2300 v1.10,2013-09-16 03:06:00,
2013-09-15 22:11:00,82.0,67.2,30.07,SW,225,0.0,-999.0,61,0.00,,,0.00,open2300 v1.10,2013-09-16 03:11:00,
2013-09-15 22:16:00,81.7,66.9,30.07,SW,225,2.5,-999.0,61,0.00,,,0.00,open2300 v1.10,2013-09-16 03:16:00,
2013-09-15 22:27:00,81.5,66.7,30.07,SSW,202,0.0,-999.0,61,0.00,,,0.00,open2300 v1.10,2013-09-16 03:27:00,
2013-09-15 22:37:00,81.3,66.6,30.07,SSW,202,0.0,-999.0,61,0.00,,,0.00,open2300 v1.10,2013-09-16 03:37:00,
2013-09-15 22:47:00,81.3,66.6,30.07,SSW,202,0.7,-999.0,61,0.00,,,0.00,open2300 v1.10,2013-09-16 03:47:00,
2013-09-15 22:52:00,81.3,66.6,30.08,SSW,202,0.0,-999.0,61,0.00,,,0.00,open2300 v1.10,2013-09-16 03:52:00,
2013-09-15 22:57:00,81.1,66.9,30.08,SSW,202,0.0,-999.0,62,0.00,,,0.00,open2300 v1.10,2013-09-16 03:57:00,
2013-09-15 23:06:00,81.0,66.7,30.08,SSW,202,0.0,-999.0,62,0.00,,,0.00,open2300 v1.10,2013-09-16 04:06:00,
2013-09-15 23:11:00,81.0,66.7,30.08,SW,225,3.1,-999.0,62,0.00,,,0.00,open2300 v1.10,2013-09-16 04:11:00,
2013-09-15 23:16:00,80.8,66.5,30.08,SSW,202,0.0,-999.0,62,0.00,,,0.00,open2300 v1.10,2013-09-16 04:16:00,
2013-09-15 23:21:00,80.6,66.8,30.09,SW,225,0.0,-999.0,63,0.00,,,0.00,open2300 v1.10,2013-09-16 04:21:00,
2013-09-15 23:26:00,80.4,66.7,30.09,SW,225,0.0,-999.0,63,0.00,,,0.00,open2300 v1.10,2013-09-16 04:26:00,
2013-09-15 23:31:00,80.4,66.7,30.08,SW,225,0.0,-999.0,63,0.00,,,0.00,open2300 v1.10,2013-09-16 04:31:00,
2013-09-15 23:37:00,80.2,66.9,30.09,SSW,202,0.0,-999.0,64,0.00,,,0.00,open2300 v1.10,2013-09-16 04:37:00,
2013-09-15 23:42:00,80.1,66.8,30.09,SSW,202,0.0,-999.0,64,0.00,,,0.00,open2300 v1.10,2013-09-16 04:42:00,
2013-09-15 23:47:00,79.9,66.6,30.09,SSW,202,0.0,-999.0,64,0.00,,,0.00,open2300 v1.10,2013-09-16 04:47:00,
2013-09-15 23:52:00,79.5,66.7,30.09,SSW,202,0.0,-999.0,65,0.00,,,0.00,open2300 v1.10,2013-09-16 04:52:00,
2013-09-15 23:57:00,79.3,67.0,30.08,SSW,202,0.0,-999.0,66,0.00,,,0.00,open2300 v1.10,2013-09-16 04:57:00,